Time;durP1;ratioP1;P1;durP2;ratioP2;P2;SDS_P1;SDS_P2;PMS_P1;PMS_P2;Temp;Humidity;BMP_temperature;BMP_pressure;BME280_temperature;BME280_humidity;BME280_pressure;Samples;Min_cycle;Max_cycle;Signal;HPM_P1;HPM_P2
2021/06/17 00:01:43;;;;;;;;;;;;;;;19.35;100.00;100893.25;4995401;28;19972;-73
2021/06/17 00:04:10;;;;;;;;;;;;;;;19.36;100.00;100900.44;4995201;28;20476;-73
2021/06/17 00:06:36;;;;;;;;;;;;;;;19.35;100.00;100901.50;4995332;28;20436;-73
2021/06/17 00:09:04;;;;;;;;;;;;;;;19.35;100.00;100898.75;4995387;28;20044;-72
2021/06/17 00:11:30;;;;;;;;;;;;;;;19.37;100.00;100899.41;4994603;28;19926;-72
2021/06/17 00:13:57;;;;;;;;;;;;;;;19.34;100.00;100897.03;4995295;28;20024;-72
2021/06/17 00:16:23;;;;;;;;;;;;;;;19.29;100.00;100899.44;4994951;28;20013;-72
2021/06/17 00:18:49;;;;;;;;;;;;;;;19.24;100.00;100898.09;4994000;28;20540;-72
2021/06/17 00:21:16;;;;;;;;;;;;;;;19.20;100.00;100891.22;4993944;28;19961;-72
2021/06/17 00:23:42;;;;;;;;;;;;;;;19.18;100.00;100893.28;4994525;28;20449;-72
2021/06/17 00:26:09;;;;;;;;;;;;;;;19.14;100.00;100902.09;4994781;28;19961;-72
2021/06/17 00:28:36;;;;;;;;;;;;;;;19.10;100.00;100907.06;4994804;28;19957;-72
2021/06/17 00:31:02;;;;;;;;;;;;;;;19.05;100.00;100907.63;4994867;28;20295;-73
2021/06/17 00:33:29;;;;;;;;;;;;;;;19.06;100.00;100911.22;4994633;28;20047;-72
2021/06/17 00:35:55;;;;;;;;;;;;;;;18.96;100.00;100911.41;4994640;28;20017;-72
2021/06/17 00:38:22;;;;;;;;;;;;;;;18.97;100.00;100906.75;4995058;28;20270;-72
2021/06/17 00:40:51;;;;;;;;;;;;;;;18.88;100.00;100906.78;4994266;28;20363;-72
2021/06/17 00:43:18;;;;;;;;;;;;;;;18.85;100.00;100906.22;4994227;28;19929;-72
2021/06/17 00:45:47;;;;;;;;;;;;;;;18.83;100.00;100905.56;4994436;28;19969;-72
2021/06/17 00:48:14;;;;;;;;;;;;;;;18.84;100.00;100913.63;4994399;28;20477;-72
2021/06/17 00:50:41;;;;;;;;;;;;;;;18.82;100.00;100906.59;4994969;28;20358;-72
2021/06/17 00:53:08;;;;;;;;;;;;;;;18.77;100.00;100909.84;4993682;28;19961;-72
2021/06/17 00:55:35;;;;;;;;;;;;;;;18.73;100.00;100911.22;4994278;28;19949;-72
2021/06/17 00:58:02;;;;;;;;;;;;;;;18.70;100.00;100903.34;4994139;28;20036;-72
2021/06/17 01:00:29;;;;;;;;;;;;;;;18.67;100.00;100909.19;4994399;28;19965;-72
2021/06/17 01:02:55;;;;;;;;;;;;;;;18.65;100.00;100901.13;4994046;28;19926;-73
2021/06/17 01:05:23;;;;;;;;;;;;;;;18.68;100.00;100908.13;4994202;28;19961;-72
2021/06/17 01:08:00;;;;;;;;;;;;;;;18.71;100.00;100896.81;4994335;28;19953;-72
2021/06/17 01:10:31;;;;;;;;;;;;;;;18.70;100.00;100898.69;4993887;28;19969;-73
2021/06/17 01:13:03;;;;;;;;;;;;;;;18.71;100.00;100894.06;5009196;28;19981;-72
2021/06/17 01:15:32;;;;;;;;;;;;;;;18.68;100.00;100895.28;4994169;28;20024;-73
2021/06/17 01:18:02;;;;;;;;;;;;;;;18.71;100.00;100900.41;4993946;28;19962;-72
2021/06/17 01:20:30;;;;;;;;;;;;;;;18.68;100.00;100886.16;4994168;28;20017;-73
2021/06/17 01:23:03;;;;;;;;;;;;;;;18.68;100.00;100889.78;4993318;28;20028;-73
2021/06/17 01:25:37;;;;;;;;;;;;;;;18.71;100.00;100885.81;4993884;28;20400;-73
2021/06/17 01:28:09;;;;;;;;;;;;;;;18.77;100.00;100887.84;4993541;28;19926;-73
2021/06/17 01:30:39;;;;;;;;;;;;;;;18.76;100.00;100886.16;4992790;28;19992;-72
2021/06/17 01:33:06;;;;;;;;;;;;;;;18.77;100.00;100879.59;4993676;28;19926;-73
2021/06/17 01:35:36;;;;;;;;;;;;;;;18.76;100.00;100879.78;4993559;28;20025;-74
2021/06/17 01:38:04;;;;;;;;;;;;;;;18.74;100.00;100875.31;4993776;28;20451;-73
2021/06/17 01:40:31;;;;;;;;;;;;;;;18.72;100.00;100877.38;4993382;28;20330;-73
2021/06/17 01:42:58;;;;;;;;;;;;;;;18.72;100.00;100871.06;4993520;28;20480;-74
2021/06/17 01:45:26;;;;;;;;;;;;;;;18.75;100.00;100878.94;4993423;28;19992;-73
2021/06/17 01:47:53;;;;;;;;;;;;;;;18.73;100.00;100879.13;4993322;28;20009;-72
2021/06/17 01:50:23;;;;;;;;;;;;;;;18.73;100.00;100879.13;4993441;28;19958;-73
2021/06/17 01:52:50;;;;;;;;;;;;;;;18.73;100.00;100878.25;4993233;28;20017;-73
2021/06/17 01:55:17;;;;;;;;;;;;;;;18.71;100.00;100885.81;4993080;28;20105;-72
2021/06/17 01:57:44;;;;;;;;;;;;;;;18.69;100.00;100874.13;4993226;28;20377;-73
2021/06/17 02:00:11;;;;;;;;;;;;;;;18.68;100.00;100887.03;4993058;28;19929;-73
2021/06/17 02:02:39;;;;;;;;;;;;;;;18.67;100.00;100881.72;4992113;28;20352;-73
2021/06/17 02:05:06;;;;;;;;;;;;;;;18.67;100.00;100870.72;4992176;28;20405;-73
2021/06/17 02:07:33;;;;;;;;;;;;;;;18.62;100.00;100878.63;4993191;28;19973;-73
2021/06/17 02:10:00;;;;;;;;;;;;;;;18.59;100.00;100874.31;4992828;28;19926;-73
2021/06/17 02:12:26;;;;;;;;;;;;;;;18.56;100.00;100872.78;4993171;28;20325;-73
2021/06/17 02:14:53;;;;;;;;;;;;;;;18.50;100.00;100867.97;4992806;28;19925;-72
2021/06/17 02:17:21;;;;;;;;;;;;;;;18.50;100.00;100867.13;4992622;28;19965;-73
2021/06/17 02:19:50;;;;;;;;;;;;;;;18.45;100.00;100869.53;4993046;28;20459;-73
2021/06/17 02:22:16;;;;;;;;;;;;;;;18.39;100.00;100871.06;4992388;28;19992;-74
2021/06/17 02:24:46;;;;;;;;;;;;;;;18.34;100.00;100873.47;4992902;28;19972;-72
2021/06/17 02:27:14;;;;;;;;;;;;;;;18.31;100.00;100862.84;4992829;28;19972;-73
2021/06/17 02:29:43;;;;;;;;;;;;;;;18.28;100.00;100863.16;4992656;28;19926;-72
2021/06/17 02:32:10;;;;;;;;;;;;;;;18.28;100.00;100864.03;4992445;28;19988;-73
2021/06/17 02:34:37;;;;;;;;;;;;;;;18.31;100.00;100857.34;4991958;28;20417;-73
2021/06/17 02:37:05;;;;;;;;;;;;;;;18.28;100.00;100863.16;4992741;28;19980;-71
2021/06/17 02:39:32;;;;;;;;;;;;;;;18.28;100.00;100865.91;4991541;28;20274;-73
2021/06/17 02:41:59;;;;;;;;;;;;;;;18.28;100.00;100863.16;4992139;28;19929;-73
2021/06/17 02:44:28;;;;;;;;;;;;;;;18.23;100.00;100861.78;4992599;28;19980;-73
2021/06/17 02:46:54;;;;;;;;;;;;;;;18.21;100.00;100857.50;4992015;28;19930;-73
2021/06/17 02:49:21;;;;;;;;;;;;;;;18.19;100.00;100854.09;4992609;28;19926;-72
2021/06/17 02:51:47;;;;;;;;;;;;;;;18.19;100.00;100854.94;4991865;28;20400;-72
2021/06/17 02:54:18;;;;;;;;;;;;;;;18.19;100.00;100859.56;4992096;28;19973;-73
2021/06/17 02:56:50;;;;;;;;;;;;;;;18.19;100.00;100854.94;4992311;28;19926;-72
2021/06/17 02:59:23;;;;;;;;;;;;;;;18.17;100.00;100850.63;4992042;28;19930;-73
2021/06/17 03:01:53;;;;;;;;;;;;;;;18.14;100.00;100853.72;4992326;28;19980;-72
2021/06/17 03:04:21;;;;;;;;;;;;;;;18.13;100.00;100854.75;4991997;28;20013;-73
2021/06/17 03:06:50;;;;;;;;;;;;;;;18.16;100.00;100855.28;4992384;28;19932;-73
2021/06/17 03:09:20;;;;;;;;;;;;;;;18.16;100.00;100847.03;4991916;28;19926;-73
2021/06/17 03:11:48;;;;;;;;;;;;;;;18.18;100.00;100841.38;4991878;28;20356;-73
2021/06/17 03:14:17;;;;;;;;;;;;;;;18.17;100.00;100839.66;4991916;28;20438;-73
2021/06/17 03:16:44;;;;;;;;;;;;;;;18.17;100.00;100835.03;4991695;28;20401;-73
2021/06/17 03:19:11;;;;;;;;;;;;;;;18.16;100.00;100830.56;4992122;28;19933;-73
2021/06/17 03:21:40;;;;;;;;;;;;;;;18.16;100.00;100838.81;4991869;28;19981;-72
2021/06/17 03:24:07;;;;;;;;;;;;;;;18.17;100.00;100835.03;4991979;28;19980;-73
2021/06/17 03:26:35;;;;;;;;;;;;;;;18.19;100.00;100841.19;4991904;28;20385;-73
2021/06/17 03:29:03;;;;;;;;;;;;;;;18.22;100.00;100834.50;4992007;28;20459;-73
2021/06/17 03:31:29;;;;;;;;;;;;;;;18.24;100.00;100835.19;4992247;28;20032;-73
2021/06/17 03:33:57;;;;;;;;;;;;;;;18.24;100.00;100836.03;4991587;28;19953;-73
2021/06/17 03:36:24;;;;;;;;;;;;;;;18.31;100.00;100840.88;4990632;28;19930;-73
2021/06/17 03:38:52;;;;;;;;;;;;;;;18.34;100.00;100841.34;4991978;28;20014;-73
2021/06/17 03:41:18;;;;;;;;;;;;;;;18.37;100.00;100842.91;4991600;28;20298;-73
2021/06/17 03:43:47;;;;;;;;;;;;;;;18.38;100.00;100853.72;4991780;28;19926;-73
2021/06/17 03:46:14;;;;;;;;;;;;;;;18.43;100.00;100844.97;4991134;28;19929;-73
2021/06/17 03:48:42;;;;;;;;;;;;;;;18.43;100.00;100853.22;4992069;28;19968;-73
2021/06/17 03:51:09;;;;;;;;;;;;;;;18.48;100.00;100848.06;4990625;28;20305;-74
2021/06/17 03:53:36;;;;;;;;;;;;;;;18.51;100.00;100846.84;4991391;28;20192;-73
2021/06/17 03:56:03;;;;;;;;;;;;;;;18.55;100.00;100848.22;4991726;28;19930;-74
2021/06/17 03:58:30;;;;;;;;;;;;;;;18.63;100.00;100850.09;4991639;28;19929;-73
2021/06/17 04:00:59;;;;;;;;;;;;;;;18.68;100.00;100847.66;4991757;28;19973;-74
2021/06/17 04:03:26;;;;;;;;;;;;;;;18.71;100.00;100850.06;4991576;28;19988;-73
2021/06/17 04:05:53;;;;;;;;;;;;;;;18.78;100.00;100844.72;4991374;28;19958;-74
2021/06/17 04:08:22;;;;;;;;;;;;;;;18.84;100.00;100839.38;4992699;28;19969;-72
2021/06/17 04:10:49;;;;;;;;;;;;;;;18.92;100.00;100834.91;5005513;28;19926;-72
2021/06/17 04:13:15;;;;;;;;;;;;;;;19.00;100.00;100841.25;4991631;28;20392;-72
2021/06/17 04:15:42;;;;;;;;;;;;;;;19.02;100.00;100843.84;4985895;28;19930;-73
2021/06/17 04:18:11;;;;;;;;;;;;;;;19.05;100.00;100837.97;4984488;28;19926;-72
2021/06/17 04:20:40;;;;;;;;;;;;;;;19.12;100.00;100844.50;5009656;28;19925;-72
2021/06/17 04:23:07;;;;;;;;;;;;;;;19.19;100.00;100850.97;4991250;28;19925;-72
2021/06/17 04:25:34;;;;;;;;;;;;;;;19.24;100.00;100842.19;4989881;28;20313;-72
2021/06/17 04:28:01;;;;;;;;;;;;;;;19.33;100.00;100838.34;5004413;28;19926;-72
2021/06/17 04:30:29;;;;;;;;;;;;;;;19.39;100.00;100839.56;4975397;28;20453;-72
2021/06/17 04:32:56;;;;;;;;;;;;;;;19.47;100.00;100836.75;5012733;28;20404;-72
2021/06/17 04:35:24;;;;;;;;;;;;;;;19.57;100.00;100851.16;4997944;28;20024;-72
2021/06/17 04:37:51;;;;;;;;;;;;;;;19.64;100.00;100844.91;4995059;28;19933;-72
2021/06/17 04:40:19;;;;;;;;;;;;;;;19.74;100.00;100846.38;5011095;28;19930;-72
2021/06/17 04:42:45;;;;;;;;;;;;;;;19.85;100.00;100845.13;5014110;28;20046;-72
2021/06/17 04:45:12;;;;;;;;;;;;;;;19.96;100.00;100845.75;5006362;28;19930;-73
2021/06/17 04:47:39;;;;;;;;;;;;;;;19.98;100.00;100846.44;4994324;28;19926;-73
2021/06/17 04:50:06;;;;;;;;;;;;;;;20.01;100.00;100852.41;5006269;28;19925;-73
2021/06/17 04:52:35;;;;;;;;;;;;;;;20.09;100.00;100851.50;4989656;28;19954;-74
2021/06/17 04:55:02;;;;;;;;;;;;;;;20.17;100.00;100854.19;4974493;28;20013;-73
2021/06/17 04:57:29;;;;;;;;;;;;;;;20.33;100.00;100855.94;5011828;28;20676;-73
2021/06/17 04:59:56;;;;;;;;;;;;;;;20.48;100.00;100853.22;5011779;28;20044;-73
2021/06/17 05:02:22;;;;;;;;;;;;;;;20.55;100.00;100859.72;5012017;28;20314;-73
2021/06/17 05:04:48;;;;;;;;;;;;;;;20.70;100.00;100856.16;5013854;28;19979;-73
2021/06/17 05:07:38;;;;;;;;;;;;;;;20.80;100.00;100853.97;4998703;28;20362;-73
2021/06/17 05:12:51;;;;;;;;;;;;;;;21.07;100.00;100849.72;4993694;28;19953;-73
2021/06/17 05:15:18;;;;;;;;;;;;;;;21.22;100.00;100852.44;5005154;28;19932;-73
2021/06/17 05:17:44;;;;;;;;;;;;;;;21.34;100.00;100860.22;4996521;28;20459;-73
2021/06/17 05:20:11;;;;;;;;;;;;;;;21.49;100.00;100863.84;5008243;28;20304;-73
2021/06/17 05:22:37;;;;;;;;;;;;;;;21.62;100.00;100867.84;4994778;28;19929;-73
2021/06/17 05:25:04;;;;;;;;;;;;;;;21.75;100.00;100873.50;4996302;28;19925;-73
2021/06/17 05:27:32;;;;;;;;;;;;;;;21.91;100.00;100872.41;5001942;28;20344;-73
2021/06/17 05:29:58;;;;;;;;;;;;;;;21.96;100.00;100875.44;5003492;28;20439;-75
2021/06/17 05:32:25;;;;;;;;;;;;;;;22.13;100.00;100877.94;4994445;28;20024;-74
2021/06/17 05:34:51;;;;;;;;;;;;;;;21.97;100.00;100876.31;4993505;28;19925;-75
2021/06/17 05:37:18;;;;;;;;;;;;;;;22.06;100.00;100875.13;4993741;28;20356;-75
2021/06/17 05:39:44;;;;;;;;;;;;;;;22.13;100.00;100877.94;4993774;28;19972;-74
2021/06/17 05:42:10;;;;;;;;;;;;;;;22.09;100.00;100877.50;4997688;28;19981;-74
2021/06/17 05:44:38;;;;;;;;;;;;;;;22.23;100.00;100871.06;4999548;28;19972;-75
2021/06/17 05:47:04;;;;;;;;;;;;;;;22.38;100.00;100871.00;4993615;28;19968;-75
2021/06/17 05:49:31;;;;;;;;;;;;;;;22.47;100.00;100868.94;4993777;28;19930;-75
2021/06/17 05:51:57;;;;;;;;;;;;;;;22.48;100.00;100876.19;4993256;28;19925;-75
2021/06/17 05:54:24;;;;;;;;;;;;;;;22.61;100.00;100869.91;5009741;28;19926;-74
2021/06/17 05:56:50;;;;;;;;;;;;;;;22.84;100.00;100872.41;5012809;28;20024;-74
2021/06/17 05:59:18;;;;;;;;;;;;;;;23.10;100.00;100870.88;5006614;28;20423;-74
2021/06/17 06:01:45;;;;;;;;;;;;;;;23.32;100.00;100865.28;5012427;28;19933;-76
2021/06/17 06:04:12;;;;;;;;;;;;;;;23.43;100.00;100864.69;4996386;28;19926;-75
2021/06/17 06:06:38;;;;;;;;;;;;;;;23.45;100.00;100861.69;4997900;28;20301;-76
2021/06/17 06:09:04;;;;;;;;;;;;;;;23.69;100.00;100866.72;5027631;28;19937;-76
2021/06/17 06:11:31;;;;;;;;;;;;;;;23.96;100.00;100865.94;5010779;28;19926;-77
2021/06/17 06:13:57;;;;;;;;;;;;;;;24.37;100.00;100862.16;5012151;28;19929;-77
2021/06/17 06:16:23;;;;;;;;;;;;;;;24.67;100.00;100856.22;5012450;28;19929;-77
2021/06/17 06:18:51;;;;;;;;;;;;;;;24.82;100.00;100856.81;5012649;28;19972;-76
2021/06/17 06:21:17;;;;;;;;;;;;;;;24.91;100.00;100857.47;5027006;28;19964;-77
2021/06/17 06:23:44;;;;;;;;;;;;;;;25.26;100.00;100857.13;5012450;28;20433;-77
2021/06/17 06:26:10;;;;;;;;;;;;;;;25.68;100.00;100867.88;5012077;28;19926;-76
2021/06/17 06:28:36;;;;;;;;;;;;;;;25.70;100.00;100862.97;5012072;28;19925;-78
2021/06/17 06:31:03;;;;;;;;;;;;;;;25.82;100.00;100866.75;5012108;28;20403;-77
2021/06/17 06:33:29;;;;;;;;;;;;;;;25.78;100.00;100865.47;4995173;28;19956;-77
2021/06/17 06:35:57;;;;;;;;;;;;;;;25.85;100.00;100873.78;4992494;28;19933;-77
2021/06/17 06:38:23;;;;;;;;;;;;;;;26.22;100.00;100872.06;4992309;28;20374;-77
2021/06/17 06:40:50;;;;;;;;;;;;;;;26.38;98.86;100867.88;4992316;28;19980;-77
2021/06/17 06:43:17;;;;;;;;;;;;;;;26.60;97.83;100870.25;4992229;28;19936;-77
2021/06/17 06:45:44;;;;;;;;;;;;;;;26.77;96.64;100870.56;4991016;28;19934;-77
2021/06/17 06:48:10;;;;;;;;;;;;;;;27.15;96.10;100866.75;4986849;28;19988;-77
2021/06/17 06:50:37;;;;;;;;;;;;;;;27.17;93.62;100867.38;4991267;28;19925;-77
2021/06/17 06:53:05;;;;;;;;;;;;;;;27.50;93.10;100870.84;4991854;28;20431;-75
2021/06/17 06:55:31;;;;;;;;;;;;;;;27.68;90.10;100872.78;4991698;28;19926;-76
2021/06/17 06:57:57;;;;;;;;;;;;;;;27.94;89.97;100881.84;5006823;28;19972;-75
2021/06/17 07:00:23;;;;;;;;;;;;;;;28.04;88.76;100876.59;4992068;28;20455;-76
2021/06/17 07:02:50;;;;;;;;;;;;;;;27.79;88.49;100879.50;4991426;28;20302;-76
2021/06/17 07:05:16;;;;;;;;;;;;;;;28.01;87.83;100883.50;4991841;28;19965;-77
2021/06/17 07:07:43;;;;;;;;;;;;;;;27.63;88.41;100884.63;4990590;28;19936;-76
2021/06/17 07:10:11;;;;;;;;;;;;;;;27.40;88.99;100891.78;5006545;28;20020;-76
2021/06/17 07:12:38;;;;;;;;;;;;;;;27.14;89.13;100890.13;4989855;28;19930;-75
2021/06/17 07:15:05;;;;;;;;;;;;;;;27.55;89.10;100898.88;4989926;28;19988;-76
2021/06/17 07:17:31;;;;;;;;;;;;;;;27.72;88.45;100890.75;4991677;28;19972;-76
2021/06/17 07:19:57;;;;;;;;;;;;;;;28.17;85.12;100892.28;4991892;28;19929;-78
2021/06/17 07:22:24;;;;;;;;;;;;;;;28.66;83.23;100890.25;4990270;28;19933;-78
2021/06/17 07:24:53;;;;;;;;;;;;;;;29.28;78.49;100882.47;4991861;28;19972;-77
2021/06/17 07:27:21;;;;;;;;;;;;;;;29.39;77.22;100887.16;5006952;28;20391;-78
2021/06/17 07:29:47;;;;;;;;;;;;;;;28.53;76.75;100882.91;4991949;28;19926;-77
2021/06/17 07:32:13;;;;;;;;;;;;;;;29.15;77.14;100875.16;4991494;28;20457;-77
2021/06/17 07:34:42;;;;;;;;;;;;;;;29.40;73.73;100872.09;4992137;28;19973;-77
2021/06/17 07:37:08;;;;;;;;;;;;;;;29.66;72.67;100875.41;4991867;28;19981;-77
2021/06/17 07:39:35;;;;;;;;;;;;;;;30.13;71.93;100879.97;4991914;28;19980;-77
2021/06/17 07:42:01;;;;;;;;;;;;;;;30.47;68.51;100878.09;4991712;28;19933;-78
2021/06/17 07:44:28;;;;;;;;;;;;;;;29.78;67.97;100873.41;4991209;28;20340;-76
2021/06/17 07:46:55;;;;;;;;;;;;;;;30.31;67.26;100879.75;4991773;28;19926;-77
2021/06/17 07:49:21;;;;;;;;;;;;;;;30.20;65.09;100887.13;4991811;28;19926;-76
2021/06/17 07:51:48;;;;;;;;;;;;;;;30.21;64.51;100890.75;4991609;28;20329;-77
2021/06/17 07:54:18;;;;;;;;;;;;;;;29.97;67.24;100892.84;4991522;28;19930;-77
2021/06/17 07:56:45;;;;;;;;;;;;;;;29.65;66.60;100891.38;4991570;28;19961;-76
2021/06/17 07:59:12;;;;;;;;;;;;;;;30.70;67.01;100905.06;4991736;28;20385;-77
2021/06/17 08:01:39;;;;;;;;;;;;;;;31.36;64.32;100893.19;4991083;28;20020;-76
2021/06/17 08:04:07;;;;;;;;;;;;;;;31.77;61.51;100901.28;4993828;28;19926;-77
2021/06/17 08:06:33;;;;;;;;;;;;;;;32.25;54.34;100895.94;4995400;28;20020;-76
2021/06/17 08:09:00;;;;;;;;;;;;;;;32.75;52.75;100888.28;4995077;28;19930;-77
2021/06/17 08:11:26;;;;;;;;;;;;;;;33.13;53.19;100891.03;4995375;28;19925;-77
2021/06/17 08:13:53;;;;;;;;;;;;;;;33.40;50.89;100888.09;4995087;28;19929;-77
2021/06/17 08:16:20;;;;;;;;;;;;;;;34.01;52.97;100892.28;4995190;28;20308;-77
2021/06/17 08:18:48;;;;;;;;;;;;;;;34.35;47.45;100886.16;4995262;28;19926;-77
2021/06/17 08:21:15;;;;;;;;;;;;;;;34.23;47.14;100877.94;5009793;28;19930;-77
2021/06/17 08:23:41;;;;;;;;;;;;;;;34.10;46.31;100884.13;4995010;28;19930;-77
2021/06/17 08:26:07;;;;;;;;;;;;;;;33.63;45.58;100889.59;4994589;28;19945;-77
2021/06/17 08:28:34;;;;;;;;;;;;;;;33.78;46.44;100882.31;4994952;28;20432;-77
2021/06/17 08:31:00;;;;;;;;;;;;;;;34.03;44.72;100882.44;4994693;28;19926;-77
2021/06/17 08:33:26;;;;;;;;;;;;;;;34.39;44.04;100883.63;5010053;28;19980;-77
2021/06/17 08:35:54;;;;;;;;;;;;;;;33.54;43.29;100871.59;5010044;28;20011;-77
2021/06/17 08:38:21;;;;;;;;;;;;;;;33.49;47.08;100872.38;4997429;28;19926;-74
2021/06/17 08:40:47;;;;;;;;;;;;;;;33.47;44.62;100891.53;4994829;28;20381;-75
2021/06/17 08:43:13;;;;;;;;;;;;;;;33.96;45.66;100881.00;5007620;28;20304;-75
2021/06/17 08:45:40;;;;;;;;;;;;;;;34.61;44.55;100884.19;4994782;28;19926;-75
2021/06/17 08:48:07;;;;;;;;;;;;;;;34.64;41.03;100883.63;4994645;28;19926;-74
2021/06/17 08:50:33;;;;;;;;;;;;;;;35.04;41.44;100886.69;5009795;28;19933;-75
2021/06/17 08:53:01;;;;;;;;;;;;;;;34.76;41.06;100888.13;5013931;28;19926;-76
2021/06/17 08:55:28;;;;;;;;;;;;;;;34.77;41.49;100890.66;4999887;28;19980;-76
2021/06/17 08:57:55;;;;;;;;;;;;;;;34.90;41.55;100894.03;4993987;28;20358;-76
2021/06/17 09:00:32;;;;;;;;;;;;;;;34.56;39.59;100891.81;5007269;28;19925;-75
2021/06/17 09:03:00;;;;;;;;;;;;;;;33.99;39.93;100900.16;5011567;28;19976;-75
2021/06/17 09:05:27;;;;;;;;;;;;;;;33.07;42.08;100900.53;5013979;28;20389;-75
2021/06/17 09:07:53;;;;;;;;;;;;;;;33.62;41.78;100890.72;5007047;28;19976;-75
2021/06/17 09:10:21;;;;;;;;;;;;;;;34.46;41.55;100887.84;4994636;28;19926;-76
2021/06/17 09:12:49;;;;;;;;;;;;;;;35.34;39.77;100893.38;4997923;28;20408;-76
2021/06/17 09:15:16;;;;;;;;;;;;;;;35.61;38.72;100892.16;5009310;28;19944;-76
2021/06/17 09:17:42;;;;;;;;;;;;;;;35.96;37.78;100887.47;5013028;28;19925;-75
2021/06/17 09:20:10;;;;;;;;;;;;;;;35.89;38.00;100887.78;5013541;28;20396;-76
2021/06/17 09:22:37;;;;;;;;;;;;;;;35.36;37.06;100894.78;5012800;28;20022;-75
2021/06/17 09:25:04;;;;;;;;;;;;;;;35.35;36.53;100893.09;5001164;28;20028;-75
2021/06/17 09:27:34;;;;;;;;;;;;;;;35.52;36.65;100889.94;5010183;28;20378;-75
2021/06/17 09:30:16;;;;;;;;;;;;;;;35.15;37.36;100885.53;4974073;28;19981;-76
2021/06/17 09:32:46;;;;;;;;;;;;;;;35.04;37.52;100883.88;5013391;28;19932;-75
2021/06/17 09:35:15;;;;;;;;;;;;;;;34.70;36.31;100879.66;5026700;28;19926;-75
2021/06/17 09:37:41;;;;;;;;;;;;;;;34.47;38.11;100881.06;5013284;28;19925;-76
2021/06/17 09:40:24;;;;;;;;;;;;;;;34.84;37.05;100884.75;4996571;28;20344;-76
2021/06/17 09:42:52;;;;;;;;;;;;;;;35.78;35.80;100889.78;4992848;28;19926;-74
2021/06/17 09:45:19;;;;;;;;;;;;;;;35.67;34.42;100888.19;4996887;28;20083;-76
2021/06/17 09:47:46;;;;;;;;;;;;;;;35.86;34.69;100877.91;4992298;28;19996;-77
2021/06/17 09:50:25;;;;;;;;;;;;;;;35.65;34.22;100874.38;4993435;28;19929;-76
2021/06/17 09:52:52;;;;;;;;;;;;;;;35.62;34.24;100883.38;4993907;28;19930;-75
2021/06/17 09:55:41;;;;;;;;;;;;;;;35.44;33.99;100881.22;5006736;28;19929;-75
2021/06/17 09:58:11;;;;;;;;;;;;;;;35.40;33.42;100875.31;5009352;28;20388;-76
2021/06/17 10:00:37;;;;;;;;;;;;;;;35.99;33.86;100876.44;5012410;28;20337;-76
2021/06/17 10:03:16;;;;;;;;;;;;;;;36.17;32.58;100872.09;5012426;28;19929;-76
2021/06/17 10:05:43;;;;;;;;;;;;;;;35.08;33.89;100867.19;5012504;28;20282;-74
2021/06/17 10:08:09;;;;;;;;;;;;;;;35.15;33.71;100873.41;5012383;28;20481;-75
2021/06/17 10:10:36;;;;;;;;;;;;;;;35.67;32.69;100872.06;5012775;28;19979;-76
2021/06/17 10:13:04;;;;;;;;;;;;;;;35.19;33.46;100869.72;5012022;28;19929;-75
2021/06/17 10:15:32;;;;;;;;;;;;;;;35.26;32.64;100869.41;5027614;28;19937;-75
2021/06/17 10:17:58;;;;;;;;;;;;;;;35.47;32.44;100858.09;5006732;28;20451;-75
2021/06/17 10:20:24;;;;;;;;;;;;;;;35.67;32.56;100854.31;4997641;28;19972;-76
2021/06/17 10:22:51;;;;;;;;;;;;;;;35.85;32.67;100852.81;4992860;28;20373;-76
2021/06/17 10:25:21;;;;;;;;;;;;;;;35.92;31.45;100855.31;4991758;28;19980;-75
2021/06/17 10:27:48;;;;;;;;;;;;;;;35.93;31.12;100855.03;4992538;28;19930;-75
2021/06/17 10:30:15;;;;;;;;;;;;;;;36.83;30.63;100850.06;4992589;28;19937;-76
2021/06/17 10:32:45;;;;;;;;;;;;;;;36.18;30.07;100851.16;4992283;28;19926;-74
2021/06/17 10:35:12;;;;;;;;;;;;;;;36.10;29.69;100848.97;4992610;28;19933;-75
2021/06/17 10:37:49;;;;;;;;;;;;;;;36.41;30.80;100843.09;4991594;28;19932;-76
2021/06/17 10:40:17;;;;;;;;;;;;;;;36.42;30.24;100838.28;4991769;28;20000;-76
2021/06/17 10:42:44;;;;;;;;;;;;;;;36.24;29.40;100842.66;4992019;28;19926;-74
2021/06/17 10:45:11;;;;;;;;;;;;;;;36.57;27.80;100832.47;5007150;28;19925;-75
2021/06/17 10:47:52;;;;;;;;;;;;;;;35.70;28.92;100840.47;5012015;28;19964;-73
2021/06/17 10:50:20;;;;;;;;;;;;;;;36.36;29.99;100837.50;4995577;28;19953;-75
2021/06/17 10:52:50;;;;;;;;;;;;;;;36.56;28.98;100832.78;4993208;28;19930;-75
2021/06/17 10:55:17;;;;;;;;;;;;;;;36.42;28.17;100835.47;5001689;28;19947;-75
2021/06/17 10:57:51;;;;;;;;;;;;;;;36.73;28.86;100833.16;5022627;28;20028;-75
2021/06/17 11:00:36;;;;;;;;;;;;;;;36.70;28.29;100825.31;4997878;28;19930;-75
2021/06/17 11:03:17;;;;;;;;;;;;;;;36.89;28.71;100824.56;5004922;28;19926;-75
2021/06/17 11:05:53;;;;;;;;;;;;;;;37.17;29.04;100832.13;4990071;28;19965;-75
2021/06/17 11:08:22;;;;;;;;;;;;;;;36.55;28.30;100831.09;4983096;28;20421;-74
2021/06/17 11:10:49;;;;;;;;;;;;;;;36.35;28.37;100830.16;5007864;28;20380;-73
2021/06/17 11:13:25;;;;;;;;;;;;;;;35.95;28.44;100824.50;4994659;28;19980;-74
2021/06/17 11:15:51;;;;;;;;;;;;;;;35.84;28.72;100840.69;5002657;28;19926;-75
2021/06/17 11:18:32;;;;;;;;;;;;;;;35.96;28.22;100814.91;5011194;28;19996;-75
2021/06/17 11:21:00;;;;;;;;;;;;;;;36.57;28.71;100824.00;4994157;28;19975;-76
2021/06/17 11:23:28;;;;;;;;;;;;;;;36.73;27.27;100816.22;4997380;28;19976;-76
2021/06/17 11:25:57;;;;;;;;;;;;;;;36.12;27.51;100820.41;5011371;28;20603;-75
2021/06/17 11:28:23;;;;;;;;;;;;;;;36.62;28.13;100828.78;4996510;28;19937;-76
2021/06/17 11:30:57;;;;;;;;;;;;;;;36.29;27.84;100831.31;4989833;28;19929;-75
2021/06/17 11:33:50;;;;;;;;;;;;;;;36.58;27.36;100824.88;4991303;28;19930;-75
2021/06/17 11:36:20;;;;;;;;;;;;;;;36.78;27.25;100809.69;4990520;28;20360;-76
2021/06/17 11:38:50;;;;;;;;;;;;;;;36.45;27.28;100812.25;4996747;28;20280;-77
2021/06/17 11:41:18;;;;;;;;;;;;;;;36.78;26.56;100816.16;4995938;28;19934;-75
2021/06/17 11:43:51;;;;;;;;;;;;;;;36.84;26.91;100811.31;4995498;28;19930;-75
2021/06/17 11:46:21;;;;;;;;;;;;;;;36.58;25.80;100816.38;4995775;28;20384;-76
2021/06/17 11:48:55;;;;;;;;;;;;;;;36.87;26.27;100807.91;4996068;28;19925;-76
2021/06/17 11:51:23;;;;;;;;;;;;;;;37.19;26.00;100818.53;4994115;28;19988;-77
2021/06/17 11:53:50;;;;;;;;;;;;;;;36.97;26.32;100815.41;5007545;28;19930;-77
2021/06/17 11:56:30;;;;;;;;;;;;;;;37.44;26.28;100819.41;4997936;28;20341;-74
2021/06/17 11:58:56;;;;;;;;;;;;;;;37.53;25.68;100811.03;5005065;28;19925;-76
2021/06/17 12:01:25;;;;;;;;;;;;;;;37.24;26.11;100813.97;5014467;28;20362;-76
2021/06/17 12:04:00;;;;;;;;;;;;;;;37.28;26.64;100801.75;5014077;28;20384;-76
2021/06/17 12:06:29;;;;;;;;;;;;;;;37.13;26.11;100799.09;5013783;28;19932;-75
2021/06/17 12:09:05;;;;;;;;;;;;;;;37.87;26.03;100806.31;5014299;28;19926;-76
2021/06/17 12:11:31;;;;;;;;;;;;;;;38.24;25.00;100796.94;5014582;28;19925;-75
2021/06/17 12:13:58;;;;;;;;;;;;;;;38.44;24.50;100800.56;5014793;28;20416;-75
2021/06/17 12:16:24;;;;;;;;;;;;;;;38.27;24.60;100802.03;5014666;28;20205;-76
2021/06/17 12:18:51;;;;;;;;;;;;;;;38.49;24.96;100798.47;5014785;28;19925;-75
2021/06/17 12:21:21;;;;;;;;;;;;;;;39.01;23.94;100792.66;5014373;28;19929;-74
2021/06/17 12:23:49;;;;;;;;;;;;;;;39.77;22.97;100797.00;5014069;28;19926;-74
2021/06/17 12:26:15;;;;;;;;;;;;;;;39.25;23.91;100796.50;5014299;28;19934;-75
2021/06/17 12:28:49;;;;;;;;;;;;;;;38.81;23.75;100793.09;5005381;28;19925;-74
2021/06/17 12:31:24;;;;;;;;;;;;;;;39.00;24.05;100787.31;4995766;28;19929;-74
2021/06/17 12:33:50;;;;;;;;;;;;;;;38.75;24.46;100781.03;4994722;28;19941;-74
2021/06/17 12:36:17;;;;;;;;;;;;;;;38.99;24.55;100777.13;5004748;28;19933;-75
2021/06/17 12:38:44;;;;;;;;;;;;;;;38.99;24.38;100779.97;4995650;28;20334;-75